• Join FlightAware (Why Join?)
  • Login
  • US Flag 
01:58AM EDT


 

Airport Tracker/Info


-or-


 

Live Flight TrackerFlight Track Log ✈ CSH9556 ✈ 21-Aug-2014 ✈ ZSAM / XMN - ZSSS / SHA

Flight Track Log - Related Links

Times and Time Zones

All times are in EDT time to prevent confusion due to time zone crossing. See the CSH9556 flight status page for this flight to view local times or setup timezone preferences in your user account.

Time Position Orientation Groundspeed Altitude Reporting Facility
EDT Latitude Longitude Course Direction KTS MPH feet Rate Location/Type
11:40AM 25.2516 118.4496 22° Northeast  Level Estimated
11:41AM 25.3302 118.4856 22° Northeast  Level Estimated
11:42AM 25.4087 118.5216 23° Northeast  Level Estimated
11:43AM 25.4873 118.5577 23° Northeast  Level Estimated
11:44AM 25.5658 118.5938 23° Northeast  Level Estimated
11:45AM 25.6444 118.6300 23° Northeast  Level Estimated
11:46AM 25.7229 118.6662 23° Northeast  Level Estimated
11:47AM 25.8014 118.7025 23° Northeast  Level Estimated
11:48AM 25.8799 118.7388 23° Northeast  Level Estimated
11:49AM 25.9584 118.7752 23° Northeast  Level Estimated
11:50AM 26.0369 118.8116 23° Northeast  Level Estimated
11:51AM 26.1154 118.8481 23° Northeast  Level Estimated
11:52AM 26.1939 118.8846 23° Northeast  Level Estimated
11:53AM 26.2724 118.9212 23° Northeast  Level Estimated
11:54AM 26.3508 118.9578 23° Northeast  Level Estimated
11:55AM 26.4293 118.9944 23° Northeast  Level Estimated
11:56AM 26.5077 119.0312 23° Northeast  Level Estimated
11:57AM 26.5861 119.0679 23° Northeast  Level Estimated
11:58AM 26.6645 119.1047 23° Northeast  Level Estimated
11:59AM 26.7429 119.1416 23° Northeast  Level Estimated
12:00PM 26.8213 119.1785 23° Northeast  Level Estimated
12:01PM 26.8997 119.2155 23° Northeast  Level Estimated
12:02PM 26.9781 119.2525 23° Northeast  Level Estimated
12:03PM 27.0565 119.2896 23° Northeast  Level Estimated
12:04PM 27.1348 119.3267 23° Northeast  Level Estimated
12:05PM 27.2132 119.3639 23° Northeast  Level Estimated
12:06PM 27.2915 119.4011 23° Northeast  Level Estimated
12:07PM 27.3699 119.4384 23° Northeast  Level Estimated
12:08PM 27.4482 119.4757 23° Northeast  Level Estimated
12:09PM 27.5265 119.5131 23° Northeast  Level Estimated
12:10PM 27.6048 119.5505 23° Northeast  Level Estimated
12:11PM 27.6831 119.5880 23° Northeast  Level Estimated
12:12PM 27.7614 119.6256 23° Northeast  Level Estimated
12:13PM 27.8396 119.6632 23° Northeast  Level Estimated
12:14PM 27.9179 119.7008 23° Northeast  Level Estimated
12:15PM 27.9962 119.7385 23° Northeast  Level Estimated
12:16PM 28.0744 119.7763 23° Northeast  Level Estimated
12:17PM 28.1526 119.8141 23° Northeast  Level Estimated
12:18PM 28.2309 119.8520 23° Northeast  Level Estimated
12:19PM 28.3091 119.8899 23° Northeast  Level Estimated
12:20PM 28.3873 119.9279 23° Northeast  Level Estimated
12:21PM 28.4655 119.9660 23° Northeast  Level Estimated
12:22PM 28.5436 120.0041 23° Northeast  Level Estimated
12:23PM 28.6218 120.0422 23° Northeast  Level Estimated
12:24PM 28.6999 120.0804 23° Northeast  Level Estimated
12:25PM 28.7781 120.1187 23° Northeast  Level Estimated
12:26PM 28.8562 120.1570 23° Northeast  Level Estimated
12:27PM 28.9344 120.1954 23° Northeast  Level Estimated
12:28PM 29.0125 120.2338 23° Northeast  Level Estimated
12:29PM 29.0906 120.2723 23° Northeast  Level Estimated
12:30PM 29.1687 120.3109 23° Northeast  Level Estimated
12:31PM 29.2467 120.3495 23° Northeast  Level Estimated
12:32PM 29.3248 120.3882 23° Northeast  Level Estimated
12:33PM 29.4029 120.4269 23° Northeast  Level Estimated
12:34PM 29.4809 120.4657 23° Northeast  Level Estimated
12:35PM 29.5590 120.5046 23° Northeast  Level Estimated
12:36PM 29.6370 120.5435 23° Northeast  Level Estimated
12:37PM 29.7150 120.5825 23° Northeast  Level Estimated
12:38PM 29.7930 120.6215 23° Northeast  Level Estimated
12:39PM 29.8710 120.6606 23° Northeast  Level Estimated
12:40PM 29.9490 120.6998 24° Northeast  Level Estimated
12:41PM 30.0269 120.7390 24° Northeast  Level Estimated
12:42PM 30.1049 120.7783 24° Northeast  Level Estimated
12:43PM 30.1828 120.8176 24° Northeast  Level Estimated
12:44PM 30.2608 120.8570 24° Northeast  Level Estimated
12:45PM 30.3387 120.8965 24° Northeast  Level Estimated
12:46PM 30.4166 120.9360 24° Northeast  Level Estimated
12:47PM 30.4945 120.9756 24° Northeast  Level Estimated
12:48PM 30.5724 121.0153 24° Northeast  Level Estimated
12:49PM 30.6502 121.0550 24° Northeast  Level Estimated
12:50PM 30.7281 121.0948 24° Northeast  Level Estimated
12:51PM 30.8059 121.1346 24° Northeast  Level Estimated
12:52PM 30.8838 121.1745 24° Northeast  Level Estimated
12:53PM 30.9616 121.2145 24° Northeast  Level Estimated
12:54PM 31.0394 121.2545 24° Northeast  Level Estimated
12:55PM 31.1172 121.2947 24° Northeast  Level Estimated
12:56PM 31.1950 121.3348 24° Northeast  Level Estimated
12:57PM 31.1979 121.3363 24° Northeast  Level Estimated
12:58PM 31.1979 121.3363 North  Level Estimated
12:59PM 31.1979 121.3363 North  Level Estimated